createdAt,value
2023-05-06T00:00:17.426Z,10.90
2023-05-06T00:05:19.175Z,11.85
2023-05-06T00:10:21.289Z,11.40
2023-05-06T00:15:23.082Z,11.48
2023-05-06T00:20:25.338Z,11.45
2023-05-06T00:25:27.062Z,11.60
2023-05-06T00:30:28.826Z,11.48
2023-05-06T00:35:31.378Z,11.02
2023-05-06T00:40:33.141Z,11.48
2023-05-06T00:45:35.596Z,11.77
2023-05-06T00:50:40.179Z,11.88
2023-05-06T00:55:42.139Z,12.55
2023-05-06T01:00:44.946Z,12.48
2023-05-06T01:06:06.980Z,12.52
2023-05-06T01:11:25.745Z,12.32
2023-05-06T01:16:30.824Z,12.30
2023-05-06T01:21:34.690Z,11.52
2023-05-06T01:26:36.465Z,11.90
2023-05-06T01:31:47.746Z,12.55
2023-05-06T01:37:10.780Z,13.07
2023-05-06T01:42:15.019Z,12.85
2023-05-06T01:47:17.636Z,13.30
2023-05-06T01:52:22.274Z,13.35
2023-05-06T01:57:23.961Z,13.95
2023-05-06T02:02:25.792Z,13.43
2023-05-06T02:07:27.545Z,13.73
2023-05-06T02:12:29.221Z,13.68
2023-05-06T02:17:30.937Z,13.30
2023-05-06T02:22:32.835Z,13.25
2023-05-06T02:27:34.738Z,13.60
2023-05-06T02:32:36.764Z,13.50
2023-05-06T02:37:38.547Z,13.68
2023-05-06T02:42:40.384Z,13.13
2023-05-06T02:47:42.215Z,13.27
2023-05-06T02:52:43.947Z,13.52
2023-05-06T02:57:45.629Z,13.73
2023-05-06T03:02:47.356Z,14.57
2023-05-06T03:07:49.034Z,14.02
2023-05-06T03:12:51.109Z,13.90
2023-05-06T03:17:53.078Z,14.38
2023-05-06T03:22:55.811Z,12.75
2023-05-06T03:27:57.488Z,14.65
2023-05-06T03:33:02.478Z,14.70
2023-05-06T03:38:04.206Z,14.73
2023-05-06T03:43:06.041Z,16.08
2023-05-06T03:48:07.783Z,14.82
2023-05-06T03:53:09.846Z,16.05
2023-05-06T03:58:11.603Z,15.88
2023-05-06T04:03:13.353Z,16.25
2023-05-06T04:08:17.229Z,17.33
2023-05-06T04:13:19.619Z,16.17
2023-05-06T04:18:21.374Z,15.98
2023-05-06T04:23:23.119Z,16.00
2023-05-06T04:28:24.934Z,16.00
2023-05-06T04:33:27.350Z,15.70
2023-05-06T04:38:31.955Z,15.40
2023-05-06T04:43:33.825Z,16.80
2023-05-06T04:48:35.575Z,17.48
2023-05-06T04:53:37.316Z,17.40
2023-05-06T04:58:39.107Z,18.38
2023-05-06T05:03:40.936Z,19.77
2023-05-06T05:08:42.717Z,20.25
2023-05-06T05:13:44.490Z,19.95
2023-05-06T05:18:46.208Z,19.35
2023-05-06T05:23:47.931Z,19.75
2023-05-06T05:28:49.691Z,18.35
2023-05-06T05:33:51.453Z,18.27
2023-05-06T05:38:53.924Z,17.77
2023-05-06T05:43:55.635Z,17.45
2023-05-06T05:48:57.309Z,16.88
2023-05-06T05:53:59.095Z,17.77
2023-05-06T05:59:01.209Z,16.88
2023-05-06T06:04:03.091Z,17.02
2023-05-06T06:09:04.953Z,17.75
2023-05-06T06:14:06.648Z,18.25
2023-05-06T06:19:08.622Z,16.30
2023-05-06T06:24:10.389Z,16.35
2023-05-06T06:29:12.353Z,15.52
2023-05-06T06:34:14.060Z,15.35
2023-05-06T06:39:15.936Z,15.38
2023-05-06T06:44:17.689Z,15.32
2023-05-06T06:49:19.340Z,16.23
2023-05-06T06:54:21.024Z,15.38
2023-05-06T06:59:22.982Z,15.77
2023-05-06T07:04:25.689Z,15.27
2023-05-06T07:09:27.418Z,15.52
2023-05-06T07:14:29.141Z,14.48
2023-05-06T07:19:33.499Z,14.95
2023-05-06T07:24:35.211Z,14.50
2023-05-06T07:29:37.422Z,15.38
2023-05-06T07:34:39.315Z,15.07
2023-05-06T07:39:41.194Z,14.93
2023-05-06T07:44:43.091Z,14.60
2023-05-06T07:49:44.873Z,14.65
2023-05-06T07:54:46.539Z,14.15
2023-05-06T07:59:50.283Z,13.70
2023-05-06T08:04:52.188Z,14.25
2023-05-06T08:09:53.968Z,13.20
2023-05-06T08:14:55.711Z,15.02
2023-05-06T08:19:57.422Z,14.95
2023-05-06T08:24:59.186Z,13.95
2023-05-06T08:30:00.972Z,15.00
2023-05-06T08:35:02.654Z,13.48
2023-05-06T08:40:05.364Z,14.23
2023-05-06T08:45:08.127Z,13.52
2023-05-06T08:50:11.024Z,11.13
2023-05-06T08:55:13.781Z,11.57
2023-05-06T09:00:15.999Z,11.63
2023-05-06T09:05:17.833Z,11.57
2023-05-06T09:10:19.616Z,10.95
2023-05-06T09:15:26.014Z,11.50
2023-05-06T09:20:27.760Z,11.80
2023-05-06T09:25:29.862Z,11.52
2023-05-06T09:30:31.714Z,11.75
2023-05-06T09:35:42.014Z,11.48
2023-05-06T09:40:43.750Z,11.73
2023-05-06T09:45:46.289Z,12.10
2023-05-06T09:50:48.059Z,11.70
2023-05-06T09:55:51.395Z,11.73
2023-05-06T10:00:53.853Z,12.82
2023-05-06T10:05:57.514Z,12.57
2023-05-06T10:11:01.170Z,12.30
2023-05-06T10:16:03.057Z,11.30
2023-05-06T10:21:13.936Z,10.13
2023-05-06T10:26:19.660Z,9.60
2023-05-06T10:31:21.488Z,11.10
2023-05-06T10:36:25.916Z,10.02
2023-05-06T10:41:29.075Z,9.38
2023-05-06T10:46:31.047Z,9.90
2023-05-06T10:51:33.965Z,9.05
2023-05-06T10:56:39.494Z,9.77
2023-05-06T11:01:43.803Z,9.20
2023-05-06T11:06:52.424Z,9.20
2023-05-06T11:12:05.035Z,8.98
2023-05-06T11:17:08.970Z,9.10
2023-05-06T11:22:42.736Z,9.00
2023-05-06T11:27:44.462Z,9.35
2023-05-06T11:32:47.230Z,8.95
2023-05-06T11:37:52.073Z,9.10
2023-05-06T11:42:53.800Z,10.20
2023-05-06T11:47:55.899Z,10.05
2023-05-06T11:52:58.414Z,10.23
2023-05-06T11:58:02.835Z,10.65
2023-05-06T12:03:04.608Z,9.45
2023-05-06T12:08:13.440Z,11.02
2023-05-06T12:13:19.857Z,10.07
2023-05-06T12:18:23.114Z,9.63
2023-05-06T12:23:24.903Z,9.32
2023-05-06T12:28:26.933Z,9.75
2023-05-06T12:33:45.164Z,9.23
2023-05-06T12:39:00.834Z,9.52
2023-05-06T12:44:02.686Z,10.50
2023-05-06T12:49:04.407Z,9.20
2023-05-06T12:54:29.496Z,9.60
2023-05-06T12:59:32.012Z,9.02
2023-05-06T13:04:33.704Z,9.25
2023-05-06T13:09:35.412Z,9.85
2023-05-06T13:14:39.932Z,9.57
2023-05-06T13:19:42.182Z,10.82
2023-05-06T13:24:43.844Z,9.70
2023-05-06T13:29:45.606Z,8.55
2023-05-06T13:34:47.281Z,8.73
2023-05-06T13:39:48.962Z,8.55
2023-05-06T13:44:50.773Z,9.23
2023-05-06T13:49:52.441Z,8.98
2023-05-06T13:54:54.239Z,9.25
2023-05-06T13:59:56.282Z,8.50
2023-05-06T14:04:58.011Z,8.50
2023-05-06T14:09:59.747Z,9.07
2023-05-06T14:15:01.463Z,9.60
2023-05-06T14:20:05.241Z,10.50
2023-05-06T14:25:07.720Z,11.18
2023-05-06T14:30:10.195Z,9.60
2023-05-06T14:35:12.175Z,9.30
2023-05-06T14:40:15.633Z,8.30
2023-05-06T14:45:17.506Z,9.27
2023-05-06T14:50:19.219Z,8.63
2023-05-06T14:55:21.100Z,8.73
2023-05-06T15:00:23.169Z,8.32
2023-05-06T15:05:24.947Z,9.25
2023-05-06T15:10:26.738Z,8.90
2023-05-06T15:15:28.501Z,8.43
2023-05-06T15:20:30.827Z,7.75
2023-05-06T15:25:36.025Z,7.78
2023-05-06T15:30:39.143Z,8.18
2023-05-06T15:35:40.868Z,8.10
2023-05-06T15:40:50.971Z,6.88
2023-05-06T15:45:52.955Z,7.18
2023-05-06T15:50:54.775Z,8.57
2023-05-06T15:56:03.565Z,10.05
2023-05-06T16:01:14.738Z,10.80
2023-05-06T16:06:16.634Z,9.27
2023-05-06T16:11:18.383Z,10.38
2023-05-06T16:16:20.407Z,14.07
2023-05-06T16:21:22.141Z,13.80
2023-05-06T16:26:25.711Z,10.07
2023-05-06T16:31:30.085Z,10.98
2023-05-06T16:36:31.977Z,12.05
2023-05-06T16:41:34.312Z,13.75
2023-05-06T16:46:36.284Z,12.68
2023-05-06T16:51:38.000Z,11.82
2023-05-06T16:56:50.702Z,11.70
2023-05-06T17:01:53.665Z,12.65
2023-05-06T17:06:55.550Z,13.18
2023-05-06T17:11:57.299Z,13.63
2023-05-06T17:17:03.230Z,11.82
2023-05-06T17:22:05.028Z,12.45
2023-05-06T17:27:07.251Z,12.40
2023-05-06T17:32:11.867Z,10.88
2023-05-06T17:37:14.918Z,11.73
2023-05-06T17:42:17.942Z,11.55
2023-05-06T17:47:22.827Z,11.95
2023-05-06T17:52:28.067Z,11.95
2023-05-06T17:57:30.373Z,12.48
2023-05-06T18:02:32.330Z,12.52
2023-05-06T18:07:35.751Z,12.70
2023-05-06T18:12:37.558Z,12.70
2023-05-06T18:17:39.321Z,12.43
2023-05-06T18:22:42.806Z,13.02
2023-05-06T18:27:44.629Z,14.07
2023-05-06T18:32:47.376Z,14.50
2023-05-06T18:37:50.488Z,14.23
2023-05-06T18:42:54.155Z,14.27
2023-05-06T18:47:56.364Z,12.35
2023-05-06T18:52:58.036Z,12.45
2023-05-06T18:58:06.048Z,11.55
2023-05-06T19:03:08.296Z,10.93
2023-05-06T19:08:10.290Z,11.00
2023-05-06T19:13:12.200Z,11.02
2023-05-06T19:18:14.074Z,11.27
2023-05-06T19:23:15.919Z,11.27
2023-05-06T19:28:17.799Z,10.85
2023-05-06T19:33:21.895Z,11.43
2023-05-06T19:38:23.581Z,11.93
2023-05-06T19:43:25.321Z,10.75
2023-05-06T19:48:27.067Z,10.85
2023-05-06T19:53:28.949Z,10.70
2023-05-06T19:58:30.706Z,9.93
2023-05-06T20:03:32.808Z,10.75
2023-05-06T20:08:35.220Z,9.73
2023-05-06T20:13:37.029Z,10.75
2023-05-06T20:18:40.516Z,10.85
2023-05-06T20:23:42.330Z,9.70
2023-05-06T20:28:44.005Z,9.30
2023-05-06T20:33:46.960Z,8.73
2023-05-06T20:38:51.007Z,9.30
2023-05-06T20:43:57.120Z,9.55
2023-05-06T20:49:00.214Z,9.18
2023-05-06T20:54:01.988Z,8.85
2023-05-06T20:59:03.761Z,9.02
2023-05-06T21:04:06.347Z,8.73
2023-05-06T21:09:08.968Z,8.45
2023-05-06T21:14:10.799Z,8.18
2023-05-06T21:19:12.579Z,7.88
2023-05-06T21:24:15.368Z,8.50
2023-05-06T21:29:18.099Z,8.30
2023-05-06T21:34:20.034Z,8.18
2023-05-06T21:39:21.764Z,8.05
2023-05-06T21:44:23.511Z,8.25
2023-05-06T21:49:25.764Z,7.75
2023-05-06T21:54:28.963Z,7.53
2023-05-06T21:59:30.664Z,7.30
2023-05-06T22:04:33.162Z,6.63
2023-05-06T22:09:34.909Z,6.63
2023-05-06T22:14:41.629Z,6.22
2023-05-06T22:19:43.680Z,6.13
2023-05-06T22:24:49.103Z,6.05
2023-05-06T22:29:52.104Z,6.07
2023-05-06T22:34:53.842Z,6.40
2023-05-06T22:39:59.448Z,6.43
2023-05-06T22:45:01.459Z,6.25
2023-05-06T22:50:04.546Z,6.35
2023-05-06T22:55:09.517Z,7.78
2023-05-06T23:00:13.580Z,7.13
2023-05-06T23:05:16.349Z,8.27
2023-05-06T23:10:18.960Z,7.75
2023-05-06T23:15:22.960Z,8.40
2023-05-06T23:20:25.003Z,8.55
2023-05-06T23:25:27.440Z,9.02
2023-05-06T23:30:30.587Z,8.90
2023-05-06T23:35:34.751Z,8.18
2023-05-06T23:40:36.428Z,8.65
2023-05-06T23:45:38.737Z,7.57
2023-05-06T23:50:43.490Z,7.82
2023-05-06T23:55:46.239Z,7.63
